LSZR 200020Z AUTO VRB01KT 9999 FEW100 15/13 Q1024 LSZR 192350Z AUTO VRB02KT 9999 NCD 15/13 Q1024 LSZR 192320Z AUTO VRB01KT 9999 NSC 15/13 Q1024 LSZR 192250Z AUTO VRB02KT 9999 R10/0900U NCD 17/13 Q1024 LSZR 192220Z AUTO VRB04KT 9999 NCD 18/14 Q1024 LSZR 192150Z AUTO 27008KT 9999 NSC 19/15 Q1024 LSZR 192120Z AUTO 28007KT 220V320 9999 NSC 19/14 Q1023 LSZR 192050Z AUTO 21003KT 150V250 9999 SCT100 18/13 Q1023 LSZR 192020Z AUTO VRB03KT 9999 NSC 17/14 Q1023 LSZR 191950Z AUTO VRB02KT 9999 NSC 18/14 Q1023 LSZR 191920Z AUTO 36004KT 290V080 9999 FEW100 21/13 Q1023 LSZR 191850Z 25004KT 200V300 9999 FEW050 SCT100 20/14 Q1022 NOSIG RMK R LSZR 191820Z 25004KT 200V300 9999 FEW050 SCT100 21/13 Q1023 NOSIG RMK R LSZR 191750Z 16007KT 9999 FEW050 23/11 Q1022 NOSIG RMK Q LSZR 191720Z 16007KT 9999 FEW050 21/13 Q1022 NOSIG RMK Q LSZR 191650Z AUTO 12006KT 060V190 9999 //////TCU 20/13 Q1022 LSZR 191620Z 20010KT 170V240 9999 -RA FEW025 SCT080 BKN100CB 20/12 Q1023 NOSIG RMK O LSZR 191550Z 23015G25KT 190V260 9999 RA VCTS FEW045CB BKN095 21/11 Q1022 NOSIG RMK N LSZR 191520Z 23013G24KT 180V280 9999 -RA VCTS FEW050 SCT070CB 23/10 Q1022 NOSIG RMK N LSZR 191450Z 21010KT 160V250 9999 -RA VCTS FEW050 SCT070CB 25/13 Q1022 NOSIG RMK M LSZR 191420Z VRB02KT 9999 SCT050CB 27/16 Q1021 NOSIG RMK L LSZR 191350Z VRB03KT 9999 FEW050TCU 27/13 Q1022 NOSIG RMK K LSZR 191320Z 30004KT 9999 FEW050TCU 27/13 Q1022 NOSIG RMK K LSZR 191250Z VRB03KT 9999 FEW050 27/13 Q1022 NOSIG RMK J LSZR 191220Z 31004KT 270V330 9999 FEW050 27/12 Q1022 NOSIG RMK J LSZR 191150Z VRB02KT 9999 FEW045 26/14 Q1022 NOSIG RMK I LSZR 191120Z VRB03KT 9999 FEW045 26/15 Q1022 NOSIG RMK I LSZR 191050Z 27004KT 250V310 CAVOK 23/14 Q1023 NOSIG RMK H LSZR 191020Z 27004KT 250V310 CAVOK 23/14 Q1023 NOSIG RMK H LSZR 190950Z VRB02KT 9999 SCT075 22/14 Q1023 NOSIG RMK G LSZR 190920Z VRB02KT 9999 SCT075 21/14 Q1023 NOSIG RMK G LSZR 190850Z VRB02KT 9999 SCT075 SCT085 20/13 Q1024 NOSIG RMK F LSZR 190820Z VRB02KT CAVOK 20/13 Q1024 NOSIG RMK E LSZR 190750Z VRB02KT CAVOK 19/13 Q1023 NOSIG RMK D LSZR 190720Z VRB01KT CAVOK 19/12 Q1023 NOSIG RMK D LSZR 190650Z AUTO VRB02KT 9999 NCD 18/12 Q1023 LSZR 190620Z 28004KT CAVOK 17/12 Q1023 NOSIG RMK C LSZR 190550Z 28004KT CAVOK 17/12 Q1023 NOSIG RMK C LSZR 190520Z 27004KT CAVOK 17/13 Q1022 NOSIG RMK B LSZR 190450Z 21002KT CAVOK 15/11 Q1022 NOSIG RMK A LSZR 190420Z 21002KT CAVOK 15/11 Q1022 NOSIG RMK A LSZR 190350Z AUTO VRB02KT 9999 NCD 14/11 Q1022 LSZR 190320Z AUTO 26003KT 210V290 9999 NCD 14/11 Q1022 LSZR 190250Z AUTO 26003KT 220V300 9999 NCD 15/11 Q1022 LSZR 190220Z AUTO VRB03KT 9999 NCD 14/11 Q1021 LSZR 190150Z AUTO VRB03KT 9999 NCD 16/11 Q1021 LSZR 190120Z AUTO 25004KT 210V290 9999 NCD 17/11 Q1021 LSZR 190050Z AUTO 25003KT 200V290 9999 NCD 14/11 Q1021 LSZR 190020Z AUTO VRB01KT 9999 NCD 15/12 Q1021 LSZR 182350Z AUTO VRB01KT 9999 NCD 14/11 Q1021 LSZR 182320Z AUTO VRB02KT 9999 NCD 14/11 Q1021 LSZR 182250Z AUTO 21002KT 9999 NCD 14/11 Q1021 LSZR 182220Z AUTO VRB01KT 9999 NCD 17/11 Q1021 LSZR 182150Z AUTO 20002KT 9999 NCD 15/11 Q1021 LSZR 182120Z AUTO VRB02KT 9999 NCD 17/11 Q1021 LSZR 182050Z AUTO 23003KT 9999 NCD 16/11 Q1021 LSZR 182020Z AUTO 21003KT 9999 NCD 18/11 Q1021 LSZR 181950Z AUTO VRB02KT 9999 NCD 19/11 Q1021 LSZR 181920Z AUTO 10004KT 060V150 9999 NCD 23/10 Q1020 LSZR 181850Z AUTO 09004KT 030V130 9999 NCD 23/12 Q1020 LSZR 181820Z 06005KT 020V100 CAVOK 24/12 Q1020 NOSIG RMK R LSZR 181750Z 03008KT CAVOK 25/11 Q1020 NOSIG RMK O LSZR 181720Z 03008KT CAVOK 25/11 Q1020 NOSIG RMK O LSZR 181650Z 27005KT 9999 FEW070 26/11 Q1020 NOSIG RMK N LSZR 181620Z 27005KT 9999 FEW070 26/11 Q1020 NOSIG RMK N LSZR 181550Z 27006KT 9999 FEW070 26/12 Q1020 NOSIG RMK M LSZR 181520Z 27006KT 9999 FEW070 26/12 Q1020 NOSIG RMK M LSZR 181450Z 27006KT 9999 FEW070 26/11 Q1021 NOSIG RMK L LSZR 181420Z 27006KT 9999 FEW070 25/12 Q1021 NOSIG RMK K LSZR 181350Z 27006KT 9999 FEW070 25/14 Q1021 NOSIG RMK K LSZR 181320Z 28005KT 9999 FEW070 25/12 Q1021 NOSIG RMK J LSZR 181250Z 28005KT 9999 FEW070 25/12 Q1021 NOSIG RMK J

METAR Messwerte "RHEINECK/ALTENRH" LSZR

Zurück zur Übersicht

Ortsname
Ländercode / m ü. NN
Zeit Temperatur Taupunkt Rel.
Luftfeuchte
Luftdruck:
Altimeter
NN
Station
Wind in Beaufort
(Knoten)
Sichtweite
(Meter)
Wolken
(Meter über Grund)
Wettererscheinung
RHEINECK/ALTENRH
CH 396
Fr 20.05. 02:20151388 %1024
1024
977
Uml 1 (1)>= 10000Leicht bewölkt (3000) 
RHEINECK/ALTENRH
CH 396
Fr 20.05. 01:50151388 %1024
1024
977
Uml 1 (2)>= 10000  
RHEINECK/ALTENRH
CH 396
Fr 20.05. 01:20151388 %1024
1024
977
Uml 1 (1)>= 10000Nicht signifikant 
RHEINECK/ALTENRH
CH 396
Fr 20.05. 00:50171377 %1024
1024
977
Uml 1 (2)>= 10000  
RHEINECK/ALTENRH
CH 396
Fr 20.05. 00:20181477 %1024
1024
977
Uml 2 (4)>= 10000  
RHEINECK/ALTENRH
CH 396
Do 19.05. 23:50191578 %1024
1023
977
W 3 (8)>= 10000Nicht signifikant 
RHEINECK/ALTENRH
CH 396
Do 19.05. 23:20191473 %1023
1022
976
W 3 (7)
SW - NW
>= 10000Nicht signifikant 
RHEINECK/ALTENRH
CH 396
Do 19.05. 22:50181373 %1023
1023
976
SSW 2 (3)
SSO - WSW
>= 10000Wolkig (3000) 
RHEINECK/ALTENRH
CH 396
Do 19.05. 22:20171482 %1023
1023
976
Uml 2 (3)>= 10000Nicht signifikant 
RHEINECK/ALTENRH
CH 396
Do 19.05. 21:50181477 %1023
1023
976
Uml 1 (2)>= 10000Nicht signifikant 
RHEINECK/ALTENRH
CH 396
Do 19.05. 21:20211360 %1023
1022
976
N 2 (4)
WNW - O
>= 10000Leicht bewölkt (3000) 
RHEINECK/ALTENRH
CH 396
Do 19.05. 20:50201468 %1022
1021
975
WSW 2 (4)
SSW - WNW
>= 10000Wolkig (3000)
Leicht bewölkt (1500)
 
RHEINECK/ALTENRH
CH 396
Do 19.05. 20:20211360 %1023
1022
976
WSW 2 (4)
SSW - WNW
>= 10000Wolkig (3000)
Leicht bewölkt (1500)
 
RHEINECK/ALTENRH
CH 396
Do 19.05. 19:50231147 %1022
1021
975
SSO 3 (7)>= 10000Leicht bewölkt (1500) 
RHEINECK/ALTENRH
CH 396
Do 19.05. 19:20211360 %1022
1021
975
SSO 3 (7)>= 10000Leicht bewölkt (1500) 
RHEINECK/ALTENRH
CH 396
Do 19.05. 18:50201364 %1022
1021
975
OSO 2 (6)
ONO - S
>= 10000  
RHEINECK/ALTENRH
CH 396
Do 19.05. 18:20201260 %1023
1022
976
SSW 3 (10)
S - WSW
>= 10000Stark bewölkt Cb (3000)
Wolkig (2400)
Leicht bewölkt (760)
Regen (schwach)
RHEINECK/ALTENRH
CH 396
Do 19.05. 17:50211153 %1022
1021
975
SW 4 (15) - 6 (25)
S - W
>= 10000Stark bewölkt (2900)
Leicht bewölkt Cb (1400)
Regen
RHEINECK/ALTENRH
CH 396
Do 19.05. 17:20231044 %1022
1021
975
SW 4 (13) - 6 (24)
S - W
>= 10000Wolkig Cb (2100)
Leicht bewölkt (1500)
Regen (schwach)
RHEINECK/ALTENRH
CH 396
Do 19.05. 16:50251347 %1022
1020
975
SSW 3 (10)
SSO - WSW
>= 10000Wolkig Cb (2100)
Leicht bewölkt (1500)
Regen (schwach)
RHEINECK/ALTENRH
CH 396
Do 19.05. 16:20271651 %1021
1019
974
Uml 1 (2)>= 10000Wolkig Cb (1500) 
RHEINECK/ALTENRH
CH 396
Do 19.05. 15:50271342 %1022
1020
975
Uml 2 (3)>= 10000Leicht bewölkt (1500) 
RHEINECK/ALTENRH
CH 396
Do 19.05. 15:20271342 %1022
1020
975
WNW 2 (4)>= 10000Leicht bewölkt (1500) 
RHEINECK/ALTENRH
CH 396
Do 19.05. 14:50271342 %1022
1020
975
Uml 2 (3)>= 10000Leicht bewölkt (1500) 
RHEINECK/ALTENRH
CH 396
Do 19.05. 14:20271239 %1022
1020
975
NW 2 (4)
W - NNW
>= 10000Leicht bewölkt (1500) 
RHEINECK/ALTENRH
CH 396
Do 19.05. 13:50261448 %1022
1020
975
Uml 1 (2)>= 10000Leicht bewölkt (1400) 
RHEINECK/ALTENRH
CH 396
Do 19.05. 13:20261551 %1022
1020
975
Uml 2 (3)>= 10000Leicht bewölkt (1400) 
RHEINECK/ALTENRH
CH 396
Do 19.05. 12:50231457 %1023
1022
976
W 2 (4)
WSW - NW
>= 10000Nicht signifikant 
RHEINECK/ALTENRH
CH 396
Do 19.05. 12:20231457 %1023
1022
976
W 2 (4)
WSW - NW
>= 10000Nicht signifikant 
RHEINECK/ALTENRH
CH 396
Do 19.05. 11:50221460 %1023
1022
976
Uml 1 (2)>= 10000Wolkig (2300) 
RHEINECK/ALTENRH
CH 396
Do 19.05. 11:20211464 %1023
1022
976
Uml 1 (2)>= 10000Wolkig (2300) 
RHEINECK/ALTENRH
CH 396
Do 19.05. 10:50201364 %1024
1023
977
Uml 1 (2)>= 10000Wolkig (2600)
Wolkig (2300)
 
RHEINECK/ALTENRH
CH 396
Do 19.05. 10:20201364 %1024
1023
977
Uml 1 (2)>= 10000Nicht signifikant 
RHEINECK/ALTENRH
CH 396
Do 19.05. 09:50191368 %1023
1022
976
Uml 1 (2)>= 10000Nicht signifikant 
RHEINECK/ALTENRH
CH 396
Do 19.05. 09:20191264 %1023
1022
976
Uml 1 (1)>= 10000Nicht signifikant 
RHEINECK/ALTENRH
CH 396
Do 19.05. 08:50181268 %1023
1023
976
Uml 1 (2)>= 10000  
RHEINECK/ALTENRH
CH 396
Do 19.05. 08:20171272 %1023
1023
976
W 2 (4)>= 10000Nicht signifikant 
RHEINECK/ALTENRH
CH 396
Do 19.05. 07:50171272 %1023
1023
976
W 2 (4)>= 10000Nicht signifikant 
RHEINECK/ALTENRH
CH 396
Do 19.05. 07:20171377 %1022
1022
975
W 2 (4)>= 10000Nicht signifikant 
RHEINECK/ALTENRH
CH 396
Do 19.05. 06:50151177 %1022
1022
975
SSW 1 (2)>= 10000Nicht signifikant 
RHEINECK/ALTENRH
CH 396
Do 19.05. 06:20151177 %1022
1022
975
SSW 1 (2)>= 10000Nicht signifikant 
RHEINECK/ALTENRH
CH 396
Do 19.05. 05:50141182 %1022
1022
975
Uml 1 (2)>= 10000  
RHEINECK/ALTENRH
CH 396
Do 19.05. 05:20141182 %1022
1022
975
W 2 (3)
SSW - WNW
>= 10000  
RHEINECK/ALTENRH
CH 396
Do 19.05. 04:50151177 %1022
1022
975
W 2 (3)
SW - WNW
>= 10000  
RHEINECK/ALTENRH
CH 396
Do 19.05. 04:20141182 %1021
1021
974
Uml 2 (3)>= 10000  
RHEINECK/ALTENRH
CH 396
Do 19.05. 03:50161172 %1021
1021
974
Uml 2 (3)>= 10000  
RHEINECK/ALTENRH
CH 396
Do 19.05. 03:20171168 %1021
1021
974
WSW 2 (4)
SSW - WNW
>= 10000  
RHEINECK/ALTENRH
CH 396
Do 19.05. 02:50141182 %1021
1021
974
WSW 2 (3)
SSW - WNW
>= 10000  
RHEINECK/ALTENRH
CH 396
Do 19.05. 02:20151282 %1021
1021
974
Uml 1 (1)>= 10000  
RHEINECK/ALTENRH
CH 396
Do 19.05. 01:50141182 %1021
1021
974
Uml 1 (1)>= 10000  
RHEINECK/ALTENRH
CH 396
Do 19.05. 01:20141182 %1021
1021
974
Uml 1 (2)>= 10000  
RHEINECK/ALTENRH
CH 396
Do 19.05. 00:50141182 %1021
1021
974
SSW 1 (2)>= 10000  
RHEINECK/ALTENRH
CH 396
Do 19.05. 00:20171168 %1021
1021
974
Uml 1 (1)>= 10000  
RHEINECK/ALTENRH
CH 396
Mi 18.05. 23:50151177 %1021
1021
974
SSW 1 (2)>= 10000  
RHEINECK/ALTENRH
CH 396
Mi 18.05. 23:20171168 %1021
1021
974
Uml 1 (2)>= 10000  
RHEINECK/ALTENRH
CH 396
Mi 18.05. 22:50161172 %1021
1021
974
SW 2 (3)>= 10000  
RHEINECK/ALTENRH
CH 396
Mi 18.05. 22:20181164 %1021
1021
974
SSW 2 (3)>= 10000  
RHEINECK/ALTENRH
CH 396
Mi 18.05. 21:50191160 %1021
1020
974
Uml 1 (2)>= 10000  
RHEINECK/ALTENRH
CH 396
Mi 18.05. 21:20231044 %1020
1019
973
O 2 (4)
ONO - SSO
>= 10000  
RHEINECK/ALTENRH
CH 396
Mi 18.05. 20:50231250 %1020
1019
973
O 2 (4)
NNO - SO
>= 10000  
RHEINECK/ALTENRH
CH 396
Mi 18.05. 20:20241247 %1020
1019
973
ONO 2 (5)
NNO - O
>= 10000Nicht signifikant 
RHEINECK/ALTENRH
CH 396
Mi 18.05. 19:50251141 %1020
1018
973
NNO 3 (8)>= 10000Nicht signifikant 
RHEINECK/ALTENRH
CH 396
Mi 18.05. 19:20251141 %1020
1018
973
NNO 3 (8)>= 10000Nicht signifikant 
RHEINECK/ALTENRH
CH 396
Mi 18.05. 18:50261139 %1020
1018
973
W 2 (5)>= 10000Leicht bewölkt (2100) 
RHEINECK/ALTENRH
CH 396
Mi 18.05. 18:20261139 %1020
1018
973
W 2 (5)>= 10000Leicht bewölkt (2100) 
RHEINECK/ALTENRH
CH 396
Mi 18.05. 17:50261242 %1020
1018
973
W 2 (6)>= 10000Leicht bewölkt (2100) 
RHEINECK/ALTENRH
CH 396
Mi 18.05. 17:20261242 %1020
1018
973
W 2 (6)>= 10000Leicht bewölkt (2100) 
RHEINECK/ALTENRH
CH 396
Mi 18.05. 16:50261139 %1021
1019
974
W 2 (6)>= 10000Leicht bewölkt (2100) 
RHEINECK/ALTENRH
CH 396
Mi 18.05. 16:20251244 %1021
1019
974
W 2 (6)>= 10000Leicht bewölkt (2100) 
RHEINECK/ALTENRH
CH 396
Mi 18.05. 15:50251450 %1021
1019
974
W 2 (6)>= 10000Leicht bewölkt (2100) 
RHEINECK/ALTENRH
CH 396
Mi 18.05. 15:20251244 %1021
1019
974
W 2 (5)>= 10000Leicht bewölkt (2100) 
RHEINECK/ALTENRH
CH 396
Mi 18.05. 14:50251244 %1021
1019
974
W 2 (5)>= 10000Leicht bewölkt (2100) 

Altimeter: Einstellung am Altimeter (Höhenmesser), die Höhe 0 muss auf diesen Luftdruckwert zeigen, damit das Gerät die Stationshöhe richtig anzeigt.

NN: Luftdruck reduziert auf "Normal Null", auf Meereshöhe, dieser von der Temperatur abhängige Wert wird bisweilen unkorrekt einfach als "Luftdruck" bezeichnet. Eigentlich nur eine fiktive Größe, die es erlaubt, Stationen auf unterschiedlichen Höhen miteinander zu vergleichen.

Station: Realer Luftdruck an der Station.